createdAt,value
2024-04-14T00:00:10.966Z,11.50
2024-04-14T00:02:37.746Z,7.75
2024-04-14T00:05:04.831Z,10.25
2024-04-14T00:07:31.706Z,14.75
2024-04-14T00:09:58.629Z,13.50
2024-04-14T00:12:25.796Z,13.00
2024-04-14T00:14:52.656Z,11.00
2024-04-14T00:17:19.452Z,11.50
2024-04-14T00:19:46.293Z,12.00
2024-04-14T00:22:13.712Z,10.75
2024-04-14T00:24:40.532Z,11.00
2024-04-14T00:27:07.406Z,9.00
2024-04-14T00:29:34.520Z,6.00
2024-04-14T00:32:01.263Z,10.50
2024-04-14T00:34:28.024Z,13.00
2024-04-14T00:36:54.995Z,11.75
2024-04-14T00:39:21.909Z,12.00
2024-04-14T00:41:48.640Z,11.00
2024-04-14T00:44:15.435Z,11.00
2024-04-14T00:46:42.338Z,13.00
2024-04-14T00:49:10.920Z,11.00
2024-04-14T00:51:38.411Z,13.00
2024-04-14T00:54:06.781Z,10.50
2024-04-14T00:56:33.551Z,10.00
2024-04-14T00:59:00.760Z,9.00
2024-04-14T01:01:27.699Z,9.75
2024-04-14T01:03:55.244Z,10.00
2024-04-14T01:06:22.176Z,7.00
2024-04-14T01:08:49.219Z,11.50
2024-04-14T01:11:16.378Z,9.50
2024-04-14T01:13:47.989Z,10.00
2024-04-14T01:16:14.839Z,8.25
2024-04-14T01:18:41.610Z,6.00
2024-04-14T01:21:08.738Z,4.75
2024-04-14T01:23:35.523Z,6.25
2024-04-14T01:26:02.372Z,4.75
2024-04-14T01:28:29.181Z,4.00
2024-04-14T01:30:55.993Z,5.00
2024-04-14T01:33:22.978Z,5.00
2024-04-14T01:35:49.806Z,6.00
2024-04-14T01:38:22.279Z,4.25
2024-04-14T01:40:53.074Z,4.00
2024-04-14T01:43:19.926Z,6.00
2024-04-14T01:45:47.091Z,4.25
2024-04-14T01:48:14.227Z,5.00
2024-04-14T01:50:41.297Z,4.00
2024-04-14T01:53:08.318Z,5.75
2024-04-14T01:55:35.214Z,5.25
2024-04-14T01:58:02.098Z,5.75
2024-04-14T02:00:29.936Z,7.00
2024-04-14T02:02:57.741Z,5.00
2024-04-14T02:05:24.760Z,6.00
2024-04-14T02:07:51.574Z,6.00
2024-04-14T02:10:18.346Z,6.00
2024-04-14T02:12:45.127Z,4.00
2024-04-14T02:15:12.107Z,6.25
2024-04-14T02:17:39.119Z,9.00
2024-04-14T02:20:06.331Z,5.00
2024-04-14T02:22:33.071Z,5.50
2024-04-14T02:25:00.046Z,6.25
2024-04-14T02:27:26.916Z,7.00
2024-04-14T02:29:53.641Z,8.00
2024-04-14T02:32:21.358Z,5.00
2024-04-14T02:34:48.188Z,6.00
2024-04-14T02:37:15.091Z,4.50
2024-04-14T02:39:42.043Z,5.00
2024-04-14T02:42:08.944Z,4.00
2024-04-14T02:44:35.676Z,8.00
2024-04-14T02:47:02.507Z,7.25
2024-04-14T02:49:30.210Z,7.75
2024-04-14T02:51:57.606Z,8.00
2024-04-14T02:54:25.056Z,10.75
2024-04-14T02:56:52.068Z,7.75
2024-04-14T02:59:18.959Z,8.50
2024-04-14T03:01:47.466Z,5.00
2024-04-14T03:04:14.382Z,5.00
2024-04-14T03:06:41.253Z,5.00
2024-04-14T03:09:08.054Z,5.00
2024-04-14T03:11:34.880Z,4.00
2024-04-14T03:14:01.742Z,5.25
2024-04-14T03:16:28.655Z,7.00
2024-04-14T03:18:55.552Z,5.75
2024-04-14T03:21:24.419Z,5.50
2024-04-14T03:23:51.786Z,6.50
2024-04-14T03:26:18.690Z,5.00
2024-04-14T03:28:45.430Z,5.00
2024-04-14T03:31:12.498Z,5.00
2024-04-14T03:33:39.481Z,5.00
2024-04-14T03:36:08.666Z,4.25
2024-04-14T03:38:35.836Z,5.00
2024-04-14T03:41:03.342Z,6.50
2024-04-14T03:43:30.592Z,6.00
2024-04-14T03:45:57.682Z,6.75
2024-04-14T03:48:24.680Z,6.00
2024-04-14T03:50:51.606Z,7.00
2024-04-14T03:53:18.361Z,10.00
2024-04-14T03:55:45.385Z,13.75
2024-04-14T03:58:12.197Z,11.00
2024-04-14T04:00:39.414Z,11.00
2024-04-14T04:03:06.342Z,11.50
2024-04-14T04:05:33.153Z,11.00
2024-04-14T04:07:59.884Z,10.50
2024-04-14T04:10:26.713Z,10.00
2024-04-14T04:12:53.644Z,7.25
2024-04-14T04:15:20.495Z,9.50
2024-04-14T04:17:47.434Z,7.25
2024-04-14T04:20:14.515Z,8.00
2024-04-14T04:22:41.277Z,8.25
2024-04-14T04:25:08.118Z,7.00
2024-04-14T04:27:34.984Z,10.00
2024-04-14T04:30:01.874Z,6.00
2024-04-14T04:32:28.808Z,9.25
2024-04-14T04:34:56.403Z,7.50
2024-04-14T04:37:23.338Z,10.00
2024-04-14T04:39:50.264Z,8.75
2024-04-14T04:42:17.020Z,10.00
2024-04-14T04:44:44.078Z,7.00
2024-04-14T04:47:10.857Z,5.00
2024-04-14T04:49:37.594Z,8.50
2024-04-14T04:52:04.899Z,8.75
2024-04-14T04:54:31.764Z,9.00
2024-04-14T04:56:58.558Z,11.00
2024-04-14T04:59:25.641Z,10.00
2024-04-14T05:01:52.366Z,9.00
2024-04-14T05:04:19.223Z,11.00
2024-04-14T05:06:46.046Z,9.50
2024-04-14T05:09:12.872Z,8.50
2024-04-14T05:11:39.661Z,8.00
2024-04-14T05:14:06.447Z,8.25
2024-04-14T05:16:33.185Z,7.00
2024-04-14T05:19:00.040Z,7.75
2024-04-14T05:21:26.985Z,11.00
2024-04-14T05:23:53.720Z,11.50
2024-04-14T05:26:20.486Z,7.00
2024-04-14T05:28:47.273Z,7.50
2024-04-14T05:31:14.160Z,10.00
2024-04-14T05:33:41.190Z,9.50
2024-04-14T05:36:08.297Z,7.75
2024-04-14T05:38:36.994Z,8.50
2024-04-14T05:41:03.967Z,11.75
2024-04-14T05:43:30.810Z,10.50
2024-04-14T05:45:57.655Z,9.00
2024-04-14T05:48:25.158Z,12.00
2024-04-14T05:50:52.037Z,10.00
2024-04-14T05:53:18.834Z,10.00
2024-04-14T05:55:45.648Z,8.50
2024-04-14T05:58:12.462Z,7.00
2024-04-14T06:00:39.363Z,8.75
2024-04-14T06:03:07.087Z,7.25
2024-04-14T06:05:34.099Z,7.50
2024-04-14T06:08:00.924Z,7.50
2024-04-14T06:10:28.111Z,7.75
2024-04-14T06:12:54.943Z,7.50
2024-04-14T06:15:21.695Z,7.75
2024-04-14T06:17:48.471Z,7.00
2024-04-14T06:20:15.385Z,6.00
2024-04-14T06:22:42.109Z,5.50
2024-04-14T06:25:09.038Z,5.00
2024-04-14T06:27:35.978Z,6.50
2024-04-14T06:30:02.751Z,6.00
2024-04-14T06:32:29.615Z,6.00
2024-04-14T06:34:56.684Z,7.25
2024-04-14T06:37:23.594Z,6.50
2024-04-14T06:39:50.831Z,6.00
2024-04-14T06:42:17.646Z,6.67
2024-04-14T06:44:44.565Z,6.33
2024-04-14T06:47:12.297Z,5.00
2024-04-14T06:49:39.235Z,6.67
2024-04-14T06:52:06.481Z,6.33
2024-04-14T06:54:33.481Z,6.00
2024-04-14T06:57:00.325Z,6.00
2024-04-14T06:59:27.109Z,6.00
2024-04-14T07:01:54.057Z,7.67
2024-04-14T07:04:21.195Z,6.00
2024-04-14T07:06:48.176Z,6.67
2024-04-14T07:09:15.086Z,6.67
2024-04-14T07:11:41.959Z,6.00
2024-04-14T07:14:08.747Z,5.00
2024-04-14T07:16:35.646Z,4.33
2024-04-14T07:19:02.516Z,5.00
2024-04-14T07:21:29.314Z,6.00
2024-04-14T07:23:56.063Z,6.00
2024-04-14T07:26:22.940Z,8.00
2024-04-14T07:28:49.751Z,6.00
2024-04-14T07:31:16.558Z,7.67
2024-04-14T07:33:43.383Z,4.00
2024-04-14T07:36:10.227Z,7.00
2024-04-14T07:38:37.005Z,6.00
2024-04-14T07:41:03.851Z,7.00
2024-04-14T07:43:30.596Z,7.00
2024-04-14T07:45:57.480Z,6.00
2024-04-14T07:48:24.395Z,5.00
2024-04-14T07:50:51.192Z,7.00
2024-04-14T07:53:17.925Z,7.67
2024-04-14T07:55:44.721Z,4.33
2024-04-14T07:58:11.552Z,5.67
2024-04-14T08:00:38.426Z,5.67
2024-04-14T08:03:05.441Z,3.67
2024-04-14T08:05:32.473Z,5.67
2024-04-14T08:07:59.332Z,6.33
2024-04-14T08:10:26.098Z,5.00
2024-04-14T08:12:52.967Z,5.33
2024-04-14T08:15:19.781Z,7.33
2024-04-14T08:17:46.603Z,5.67
2024-04-14T08:20:13.347Z,4.00
2024-04-14T08:22:40.208Z,6.00
2024-04-14T08:25:07.244Z,6.67
2024-04-14T08:27:34.104Z,5.00
2024-04-14T08:30:00.944Z,5.67
2024-04-14T08:32:27.790Z,6.00
2024-04-14T08:34:56.866Z,7.00
2024-04-14T08:37:23.614Z,6.00
2024-04-14T08:39:50.508Z,7.00
2024-04-14T08:42:19.348Z,6.00
2024-04-14T08:44:51.194Z,6.00
2024-04-14T08:47:19.663Z,6.33
2024-04-14T08:49:47.634Z,7.00
2024-04-14T08:52:16.929Z,6.00
2024-04-14T08:54:44.148Z,7.00
2024-04-14T08:57:14.871Z,5.00
2024-04-14T08:59:43.169Z,8.00
2024-04-14T09:02:12.209Z,7.00
2024-04-14T09:04:41.039Z,5.67
2024-04-14T09:07:08.041Z,7.00
2024-04-14T09:09:35.265Z,8.00
2024-04-14T09:12:02.123Z,6.00
2024-04-14T09:14:28.959Z,7.00
2024-04-14T09:16:55.770Z,7.00
2024-04-14T09:19:22.767Z,6.00
2024-04-14T09:21:51.010Z,6.00
2024-04-14T09:24:18.036Z,6.00
2024-04-14T09:26:45.535Z,5.00
2024-04-14T09:29:12.431Z,7.00
2024-04-14T09:31:39.210Z,6.67
2024-04-14T09:34:06.499Z,7.00
2024-04-14T09:36:33.571Z,7.00
2024-04-14T09:39:03.300Z,7.00
2024-04-14T09:41:30.539Z,6.00
2024-04-14T09:43:59.730Z,6.00
2024-04-14T09:46:28.476Z,7.33
2024-04-14T09:48:55.600Z,4.00
2024-04-14T09:51:23.870Z,7.00
2024-04-14T09:53:51.714Z,5.00
2024-04-14T09:56:19.151Z,7.00
2024-04-14T09:58:45.944Z,5.67
2024-04-14T10:01:18.933Z,6.00
2024-04-14T10:03:47.717Z,7.00
2024-04-14T10:06:16.936Z,5.00
2024-04-14T10:08:43.895Z,6.33
2024-04-14T10:11:12.028Z,7.67
2024-04-14T10:13:50.203Z,5.00
2024-04-14T10:16:25.906Z,6.00
2024-04-14T10:18:53.102Z,3.00
2024-04-14T10:21:23.292Z,6.33
2024-04-14T10:23:54.153Z,7.00
2024-04-14T10:26:21.431Z,7.00
2024-04-14T10:28:53.052Z,7.00
2024-04-14T10:31:30.495Z,7.00
2024-04-14T10:34:11.904Z,6.33
2024-04-14T10:36:44.339Z,6.67
2024-04-14T10:39:15.829Z,6.00
2024-04-14T10:41:42.690Z,6.00
2024-04-14T10:44:20.321Z,8.00
2024-04-14T10:46:50.566Z,6.67
2024-04-14T10:49:18.645Z,6.67
2024-04-14T10:51:45.719Z,6.00
2024-04-14T10:54:12.685Z,7.00
2024-04-14T10:56:39.848Z,8.00
2024-04-14T10:59:06.837Z,7.00
2024-04-14T11:01:34.702Z,6.00
2024-04-14T11:04:05.571Z,6.00
2024-04-14T11:06:32.786Z,7.00
2024-04-14T11:09:00.575Z,7.67
2024-04-14T11:11:28.032Z,7.67
2024-04-14T11:13:55.239Z,5.00
2024-04-14T11:16:22.131Z,8.00
2024-04-14T11:18:49.499Z,7.33
2024-04-14T11:21:20.216Z,6.00
2024-04-14T11:23:49.935Z,4.00
2024-04-14T11:26:16.829Z,8.00
2024-04-14T11:28:43.840Z,6.67
2024-04-14T11:31:10.938Z,7.00
2024-04-14T11:33:42.422Z,6.67
2024-04-14T11:36:12.476Z,6.00
2024-04-14T11:38:39.455Z,7.00
2024-04-14T11:41:06.663Z,7.33
2024-04-14T11:43:33.481Z,6.00
2024-04-14T11:46:00.296Z,6.00
2024-04-14T11:48:27.237Z,5.33
2024-04-14T11:50:54.574Z,7.00
2024-04-14T11:53:21.470Z,6.00
2024-04-14T11:55:48.334Z,7.00
2024-04-14T11:58:18.011Z,5.00
2024-04-14T12:00:45.066Z,6.00
2024-04-14T12:03:12.890Z,6.00
2024-04-14T12:05:39.824Z,5.00
2024-04-14T12:08:07.065Z,5.33
2024-04-14T12:10:34.521Z,5.00
2024-04-14T12:13:01.581Z,5.00
2024-04-14T12:15:28.515Z,5.67
2024-04-14T12:17:58.722Z,5.00
2024-04-14T12:20:25.584Z,6.00
2024-04-14T12:22:52.373Z,8.00
2024-04-14T12:25:19.160Z,7.00
2024-04-14T12:27:46.031Z,7.00
2024-04-14T12:30:13.004Z,6.33
2024-04-14T12:32:40.211Z,6.00
2024-04-14T12:35:07.287Z,7.00
2024-04-14T12:37:34.034Z,6.00
2024-04-14T12:40:01.062Z,6.00
2024-04-14T12:42:27.925Z,6.33
2024-04-14T12:44:54.661Z,6.33
2024-04-14T12:47:21.439Z,6.67
2024-04-14T12:49:48.271Z,5.33
2024-04-14T12:52:15.135Z,5.33
2024-04-14T12:54:41.988Z,6.00
2024-04-14T12:57:08.803Z,6.00
2024-04-14T12:59:35.577Z,6.00
2024-04-14T13:02:02.322Z,6.00
2024-04-14T13:04:29.146Z,6.00
2024-04-14T13:06:55.910Z,6.00
2024-04-14T13:09:22.971Z,7.00
2024-04-14T13:11:49.808Z,4.67
2024-04-14T13:14:16.608Z,6.00
2024-04-14T13:16:43.412Z,6.00
2024-04-14T13:19:10.290Z,6.00
2024-04-14T13:21:39.655Z,6.67
2024-04-14T13:24:06.573Z,5.33
2024-04-14T13:26:34.530Z,5.00
2024-04-14T13:29:01.450Z,5.00
2024-04-14T13:31:28.261Z,5.33
2024-04-14T13:33:55.498Z,4.67
2024-04-14T13:36:22.331Z,4.67
2024-04-14T13:38:49.791Z,5.00
2024-04-14T13:41:17.374Z,6.00
2024-04-14T13:43:44.195Z,5.00
2024-04-14T13:46:11.068Z,5.00
2024-04-14T13:48:38.064Z,5.00
2024-04-14T13:51:06.768Z,4.00
2024-04-14T13:53:33.955Z,5.00
2024-04-14T13:56:00.726Z,5.00
2024-04-14T13:58:27.515Z,6.00
2024-04-14T14:00:54.356Z,4.33
2024-04-14T14:03:21.203Z,5.00
2024-04-14T14:05:48.686Z,6.00
2024-04-14T14:08:15.479Z,5.00
2024-04-14T14:10:42.846Z,5.67
2024-04-14T14:13:12.153Z,6.00
2024-04-14T14:15:39.212Z,5.67
2024-04-14T14:18:06.587Z,6.00
2024-04-14T14:20:34.030Z,6.00
2024-04-14T14:23:00.772Z,5.33
2024-04-14T14:25:28.977Z,6.00
2024-04-14T14:27:55.824Z,7.00
2024-04-14T14:30:22.640Z,5.00
2024-04-14T14:32:49.542Z,6.00
2024-04-14T14:35:36.621Z,5.67
2024-04-14T14:38:04.125Z,5.00
2024-04-14T14:40:31.212Z,5.67
2024-04-14T14:42:58.027Z,4.67
2024-04-14T14:45:25.763Z,6.00
2024-04-14T14:47:52.833Z,5.00
2024-04-14T14:50:19.861Z,4.67
2024-04-14T14:52:46.633Z,5.67
2024-04-14T14:55:13.423Z,5.00
2024-04-14T14:57:45.972Z,5.00
2024-04-14T15:00:14.154Z,4.33
2024-04-14T15:02:41.176Z,5.00
2024-04-14T15:05:08.187Z,5.00
2024-04-14T15:07:35.259Z,4.00
2024-04-14T15:10:02.347Z,6.00
2024-04-14T15:12:29.158Z,5.67
2024-04-14T15:14:56.217Z,5.67
2024-04-14T15:17:23.073Z,3.33
2024-04-14T15:19:49.864Z,5.67
2024-04-14T15:22:18.320Z,5.00
2024-04-14T15:24:45.245Z,6.67
2024-04-14T15:27:13.376Z,7.67
2024-04-14T15:29:40.357Z,6.00
2024-04-14T15:32:07.609Z,5.67
2024-04-14T15:34:34.373Z,5.67
2024-04-14T15:37:01.212Z,6.00
2024-04-14T15:39:28.050Z,5.33
2024-04-14T15:41:54.989Z,7.00
2024-04-14T15:44:27.072Z,7.00
2024-04-14T15:46:54.598Z,8.00
2024-04-14T15:49:21.563Z,8.00
2024-04-14T15:51:48.362Z,7.67
2024-04-14T15:54:17.311Z,8.00
2024-04-14T15:56:44.189Z,7.67
2024-04-14T15:59:11.032Z,8.00
2024-04-14T16:01:38.214Z,8.33
2024-04-14T16:04:05.547Z,7.00
2024-04-14T16:06:32.405Z,6.33
2024-04-14T16:08:59.235Z,11.00
2024-04-14T16:11:26.293Z,10.33
2024-04-14T16:13:54.218Z,8.00
2024-04-14T16:16:21.513Z,8.00
2024-04-14T16:18:49.531Z,7.00
2024-04-14T16:21:16.418Z,8.67
2024-04-14T16:23:47.784Z,10.00
2024-04-14T16:26:15.005Z,9.33
2024-04-14T16:28:42.407Z,9.00
2024-04-14T16:31:12.541Z,8.00
2024-04-14T16:33:39.426Z,9.00
2024-04-14T16:36:06.374Z,7.00
2024-04-14T16:38:33.287Z,10.00
2024-04-14T16:41:00.313Z,10.00
2024-04-14T16:43:27.207Z,11.00
2024-04-14T16:45:53.990Z,9.25
2024-04-14T16:48:21.966Z,9.50
2024-04-14T16:50:48.937Z,8.00
2024-04-14T16:53:15.855Z,9.33
2024-04-14T16:55:42.782Z,11.25
2024-04-14T16:58:09.626Z,8.25
2024-04-14T17:00:37.347Z,11.00
2024-04-14T17:03:05.950Z,10.00
2024-04-14T17:05:32.857Z,10.50
2024-04-14T17:07:59.663Z,11.50
2024-04-14T17:10:26.483Z,12.00
2024-04-14T17:12:53.340Z,10.00
2024-04-14T17:15:20.125Z,8.75
2024-04-14T17:17:46.907Z,8.00
2024-04-14T17:20:13.694Z,11.25
2024-04-14T17:22:40.454Z,11.25
2024-04-14T17:25:07.468Z,10.00
2024-04-14T17:27:34.325Z,10.00
2024-04-14T17:30:02.855Z,10.25
2024-04-14T17:32:29.764Z,11.50
2024-04-14T17:34:57.130Z,8.50
2024-04-14T17:37:23.881Z,7.00
2024-04-14T17:39:50.645Z,7.75
2024-04-14T17:42:17.397Z,7.75
2024-04-14T17:44:44.118Z,5.50
2024-04-14T17:47:11.210Z,8.00
2024-04-14T17:49:38.344Z,8.25
2024-04-14T17:52:05.522Z,6.75
2024-04-14T17:54:33.054Z,5.75
2024-04-14T17:56:59.821Z,6.00
2024-04-14T17:59:26.639Z,5.00
2024-04-14T18:01:55.353Z,4.00
2024-04-14T18:04:22.189Z,8.00
2024-04-14T18:06:48.943Z,12.50
2024-04-14T18:09:15.691Z,7.50
2024-04-14T18:11:42.503Z,8.75
2024-04-14T18:14:10.316Z,9.00
2024-04-14T18:16:38.842Z,7.75
2024-04-14T18:19:05.932Z,7.75
2024-04-14T18:21:32.819Z,6.00
2024-04-14T18:24:01.908Z,9.00
2024-04-14T18:26:29.540Z,6.00
2024-04-14T18:28:56.300Z,5.25
2024-04-14T18:31:23.773Z,5.00
2024-04-14T18:33:50.586Z,5.00
2024-04-14T18:36:19.173Z,4.25
2024-04-14T18:38:46.969Z,4.50
2024-04-14T18:41:13.943Z,4.50
2024-04-14T18:43:43.617Z,4.50
2024-04-14T18:46:11.719Z,4.00
2024-04-14T18:48:41.030Z,2.75
2024-04-14T18:51:07.970Z,5.25
2024-04-14T18:53:34.799Z,2.00
2024-04-14T18:56:02.255Z,2.75
2024-04-14T18:58:32.854Z,2.00
2024-04-14T19:01:01.528Z,1.75
2024-04-14T19:03:28.437Z,2.00
2024-04-14T19:05:55.270Z,2.00
2024-04-14T19:08:27.381Z,2.00
2024-04-14T19:10:54.276Z,2.00
2024-04-14T19:13:21.299Z,1.75
2024-04-14T19:15:50.608Z,0.00
2024-04-14T19:18:17.448Z,2.00
2024-04-14T19:20:44.220Z,4.00
2024-04-14T19:23:10.948Z,5.75
2024-04-14T19:25:38.437Z,5.00
2024-04-14T19:28:05.508Z,6.00
2024-04-14T19:30:32.573Z,5.25
2024-04-14T19:32:59.415Z,3.00
2024-04-14T19:35:29.917Z,3.00
2024-04-14T19:38:00.744Z,3.00
2024-04-14T19:40:27.495Z,3.00
2024-04-14T19:42:54.275Z,2.25
2024-04-14T19:45:21.154Z,2.00
2024-04-14T19:47:47.955Z,9.00
2024-04-14T19:50:14.854Z,15.25
2024-04-14T19:52:44.124Z,12.00
2024-04-14T19:55:10.944Z,10.75
2024-04-14T19:57:37.843Z,7.00
2024-04-14T20:00:05.120Z,5.75
2024-04-14T20:02:32.172Z,13.00
2024-04-14T20:04:58.890Z,14.00
2024-04-14T20:07:25.697Z,10.25
2024-04-14T20:09:52.469Z,13.50
2024-04-14T20:12:19.184Z,7.00
2024-04-14T20:14:46.033Z,5.50
2024-04-14T20:17:12.788Z,5.75
2024-04-14T20:19:39.580Z,4.75
2024-04-14T20:22:06.411Z,5.00
2024-04-14T20:24:33.442Z,5.00
2024-04-14T20:27:00.207Z,4.25
2024-04-14T20:29:27.044Z,5.00
2024-04-14T20:31:53.869Z,5.75
2024-04-14T20:34:20.744Z,6.00
2024-04-14T20:36:47.602Z,5.00
2024-04-14T20:39:14.980Z,5.25
2024-04-14T20:41:41.744Z,6.00
2024-04-14T20:44:10.615Z,9.50
2024-04-14T20:46:37.389Z,7.00
2024-04-14T20:49:04.195Z,7.25
2024-04-14T20:51:31.066Z,7.00
2024-04-14T20:53:58.751Z,9.75
2024-04-14T20:56:25.520Z,7.00
2024-04-14T20:58:52.300Z,6.75
2024-04-14T21:01:19.134Z,5.25
2024-04-14T21:03:46.082Z,4.00
2024-04-14T21:06:13.346Z,3.00
2024-04-14T21:08:40.138Z,4.00
2024-04-14T21:11:10.497Z,3.25
2024-04-14T21:13:37.283Z,3.25
2024-04-14T21:16:11.343Z,3.00
2024-04-14T21:18:39.061Z,3.00
2024-04-14T21:21:05.925Z,4.00
2024-04-14T21:23:32.695Z,4.50
2024-04-14T21:26:01.548Z,4.50
2024-04-14T21:28:28.810Z,4.00
2024-04-14T21:30:56.200Z,4.00
2024-04-14T21:33:23.573Z,4.00
2024-04-14T21:35:52.211Z,4.00
2024-04-14T21:38:19.411Z,3.25
2024-04-14T21:40:50.190Z,5.00
2024-04-14T21:43:17.299Z,6.00
2024-04-14T21:45:53.495Z,4.00
2024-04-14T21:48:20.566Z,4.50
2024-04-14T21:50:47.383Z,5.00
2024-04-14T21:53:14.923Z,5.00
2024-04-14T21:55:41.703Z,4.00
2024-04-14T21:58:08.577Z,4.00
2024-04-14T22:00:35.413Z,3.00
2024-04-14T22:03:02.242Z,3.00
2024-04-14T22:05:28.954Z,3.00
2024-04-14T22:07:55.690Z,4.75
2024-04-14T22:10:22.524Z,4.25
2024-04-14T22:12:49.313Z,5.50
2024-04-14T22:15:16.075Z,5.00
2024-04-14T22:17:42.791Z,5.00
2024-04-14T22:20:09.818Z,3.00
2024-04-14T22:22:36.790Z,3.00
2024-04-14T22:25:03.613Z,4.25
2024-04-14T22:27:30.458Z,5.00
2024-04-14T22:29:57.203Z,5.50
2024-04-14T22:32:24.145Z,5.00
2024-04-14T22:34:50.898Z,6.00
2024-04-14T22:37:17.674Z,7.00
2024-04-14T22:39:44.481Z,14.00
2024-04-14T22:42:11.212Z,12.00
2024-04-14T22:44:38.012Z,12.00
2024-04-14T22:47:05.112Z,13.75
2024-04-14T22:49:32.996Z,11.00
2024-04-14T22:51:59.820Z,14.00
2024-04-14T22:54:26.561Z,13.00
2024-04-14T22:56:53.314Z,11.00
2024-04-14T22:59:20.209Z,11.00
2024-04-14T23:01:47.016Z,11.50
2024-04-14T23:04:14.155Z,6.25
2024-04-14T23:06:41.034Z,5.00
2024-04-14T23:09:07.818Z,6.00
2024-04-14T23:11:34.568Z,5.75
2024-04-14T23:14:01.345Z,5.00
2024-04-14T23:16:28.160Z,2.00
2024-04-14T23:18:58.373Z,4.00
2024-04-14T23:21:25.162Z,4.00
2024-04-14T23:23:51.987Z,3.00
2024-04-14T23:26:18.709Z,4.00
2024-04-14T23:28:45.489Z,4.00
2024-04-14T23:31:12.267Z,5.00
2024-04-14T23:33:39.061Z,5.25
2024-04-14T23:36:06.211Z,5.00
2024-04-14T23:38:32.908Z,5.00
2024-04-14T23:40:59.640Z,4.75
2024-04-14T23:43:26.551Z,4.25
2024-04-14T23:45:53.358Z,4.50
2024-04-14T23:48:22.270Z,6.00
2024-04-14T23:50:51.917Z,9.25
2024-04-14T23:53:18.674Z,9.75
2024-04-14T23:55:48.416Z,8.25
2024-04-14T23:58:18.750Z,8.50
